Cleveland, TN (RZR)

CessnaPC

Wings of Eagles Aviation RZR is located at the beautiful Cleveland Regional Jetport in Cleveland, TN. Opened in January 2013, the completely new airport and FBO, managed by Contour Aviation is by far one of the most beautiful airports in the nation. Wings of Eagles Aviation began operations at RZR in 2017 and continues the tradition of excellence in service provided by Wings of Eagles.

Address:
251 Dry Valley Road, NE
Cleveland, TN 37312

Phone: (423) 472-4343

Business Hours:
Monday-Sunday 7a-6p
Available 24 hrs a day by appointment.

Wings RZR

NOAA Weather

Cleveland, TN

Last Updated on Aug 21 2017, 1:55 am EDT

Current Conditions: Fair

NOAA Icon

Temp: 70°F

Wind: North at 0mph

Humidity: 94%

Dewpoint: 68.0°F

Your 5-Day Forecast at a Glance

Available data for KRZR from the past 2 hours
CLEVELAND REG., TN
Metar
KRZR 210615Z AUTO 00000KT 10SM FEW050 FEW055 21/21 A3014 RMK A01

06:15 UTC

Wind: 0° 0kt

Visibility: 10 SM

Sky: FEW 5000 ft

Temp: 21 deg C / 69.8 deg F

Dewpoint: 21 deg C / 69.8 deg F

Pressure: 30.14 inHg